Time;durP1;ratioP1;P1;durP2;ratioP2;P2;SDS_P1;SDS_P2;PMS_P1;PMS_P2;Temp;Humidity;BMP_temperature;BMP_pressure;BME280_temperature;BME280_humidity;BME280_pressure;Samples;Min_cycle;Max_cycle;Signal;HPM_P1;HPM_P2
2021/08/04 00:01:59;;;;;;;18.27;16.57;;;14.10;99.90;;;;;;5051258;28;20175;-67
2021/08/04 00:04:24;;;;;;;17.93;16.20;;;14.00;99.90;;;;;;5051416;28;20216;-67
2021/08/04 00:06:50;;;;;;;18.93;17.03;;;13.90;99.90;;;;;;5051069;28;20178;-66
2021/08/04 00:09:16;;;;;;;17.67;15.97;;;13.90;99.90;;;;;;5051322;28;20247;-67
2021/08/04 00:11:41;;;;;;;18.43;16.50;;;13.80;99.90;;;;;;5051073;28;20263;-67
2021/08/04 00:14:07;;;;;;;18.63;16.70;;;13.60;99.90;;;;;;5051221;28;20566;-67
2021/08/04 00:16:33;;;;;;;18.60;16.70;;;13.70;99.90;;;;;;5051140;28;20178;-67
2021/08/04 00:18:59;;;;;;;18.73;16.73;;;13.60;99.90;;;;;;5050837;28;20182;-67
2021/08/04 00:21:25;;;;;;;19.73;17.43;;;13.50;99.90;;;;;;5051062;28;20175;-68
2021/08/04 00:23:51;;;;;;;23.33;18.73;;;13.50;99.90;;;;;;5050985;28;20194;-66
2021/08/04 00:26:16;;;;;;;19.63;17.30;;;13.40;99.90;;;;;;5050939;28;20786;-67
2021/08/04 00:28:42;;;;;;;19.90;17.73;;;13.50;99.90;;;;;;5050931;28;20225;-66
2021/08/04 00:31:08;;;;;;;22.47;17.27;;;13.50;99.90;;;;;;5050737;28;20627;-67
2021/08/04 00:33:33;;;;;;;18.73;16.07;;;13.50;99.90;;;;;;5052861;28;20170;-67
2021/08/04 00:35:59;;;;;;;18.87;16.40;;;13.40;99.90;;;;;;5053475;28;20258;-66
2021/08/04 00:38:25;;;;;;;19.80;17.80;;;13.30;99.90;;;;;;5055109;28;20273;-67
2021/08/04 00:40:50;;;;;;;19.97;17.87;;;13.30;99.90;;;;;;5054397;28;20789;-67
2021/08/04 00:43:16;;;;;;;20.17;18.07;;;13.20;99.90;;;;;;5054882;28;20228;-67
2021/08/04 00:45:42;;;;;;;21.10;18.93;;;13.20;99.90;;;;;;5054497;28;20297;-68
2021/08/04 00:48:08;;;;;;;20.70;18.20;;;13.10;99.90;;;;;;5054745;28;20217;-68
2021/08/04 00:50:35;;;;;;;20.90;18.50;;;13.10;99.90;;;;;;5054608;28;20499;-68
2021/08/04 00:53:16;;;;;;;19.53;17.53;;;13.00;99.90;;;;;;5054321;28;20174;-68
2021/08/04 00:55:41;;;;;;;24.33;20.13;;;13.10;99.90;;;;;;5054763;28;20193;-67
2021/08/04 00:58:07;;;;;;;22.23;19.87;;;13.10;99.90;;;;;;5054323;28;20174;-68
2021/08/04 01:00:33;;;;;;;24.30;19.20;;;13.10;99.90;;;;;;5053165;28;20661;-68
2021/08/04 01:03:04;;;;;;;22.80;19.30;;;13.00;99.90;;;;;;5054168;28;20174;-67
2021/08/04 01:05:40;;;;;;;26.87;19.50;;;13.00;99.90;;;;;;5054493;28;20183;-68
2021/08/04 01:08:09;;;;;;;28.33;19.40;;;13.00;99.90;;;;;;5054173;28;20170;-66
2021/08/04 01:10:42;;;;;;;26.97;19.70;;;13.00;99.90;;;;;;5054403;28;20228;-67
2021/08/04 01:13:13;;;;;;;23.67;19.50;;;13.00;99.90;;;;;;5054037;28;20178;-68
2021/08/04 01:15:45;;;;;;;26.60;19.53;;;13.00;99.90;;;;;;5054258;28;20207;-66
2021/08/04 01:18:15;;;;;;;22.00;19.67;;;13.00;99.90;;;;;;5053907;28;20175;-66
2021/08/04 01:20:42;;;;;;;23.67;19.73;;;13.00;99.90;;;;;;5054082;28;20691;-67
2021/08/04 01:23:41;;;;;;;24.80;19.87;;;13.00;99.90;;;;;;5053836;28;20183;-68
2021/08/04 01:26:11;;;;;;;27.10;20.70;;;12.90;99.90;;;;;;5054351;28;20535;-68
2021/08/04 01:28:42;;;;;;;24.17;20.03;;;12.90;99.90;;;;;;5053795;28;20199;-67
2021/08/04 01:31:11;;;;;;;25.97;20.00;;;12.90;99.90;;;;;;5053480;28;20182;-67
2021/08/04 01:33:47;;;;;;;23.97;21.03;;;12.90;99.90;;;;;;5053771;28;20179;-67
2021/08/04 01:36:13;;;;;;;28.70;22.17;;;12.90;99.90;;;;;;5053805;28;20211;-67
2021/08/04 01:38:41;;;;;;;28.60;22.73;;;12.90;99.90;;;;;;5053933;28;20171;-67
2021/08/04 01:41:08;;;;;;;27.07;22.73;;;12.90;99.90;;;;;;5053067;28;20328;-67
2021/08/04 01:43:35;;;;;;;28.97;22.43;;;12.90;99.90;;;;;;5053698;28;20178;-67
2021/08/04 01:46:01;;;;;;;29.80;22.40;;;12.80;99.90;;;;;;5052431;28;20182;-67
2021/08/04 01:48:28;;;;;;;28.90;22.63;;;12.80;99.90;;;;;;5053445;28;20222;-67
2021/08/04 01:50:57;;;;;;;28.73;23.77;;;12.80;99.90;;;;;;5052960;28;20179;-68
2021/08/04 01:53:24;;;;;;;30.90;24.03;;;12.80;99.90;;;;;;5053565;28;20510;-68
2021/08/04 01:55:50;;;;;;;35.97;24.00;;;12.70;99.90;;;;;;5053345;28;20167;-67
2021/08/04 01:58:16;;;;;;;28.83;23.00;;;12.70;99.90;;;;;;5053316;28;20189;-67
2021/08/04 02:00:43;;;;;;;32.73;24.90;;;12.70;99.90;;;;;;5053141;28;20179;-67
2021/08/04 02:03:08;;;;;;;31.40;22.87;;;12.70;99.90;;;;;;5053292;28;20589;-67
2021/08/04 02:05:34;;;;;;;29.27;24.53;;;12.60;99.90;;;;;;5053097;28;20312;-67
2021/08/04 02:08:26;;;;;;;31.90;25.07;;;12.60;99.90;;;;;;5053206;28;20166;-66
2021/08/04 02:11:08;;;;;;;32.13;25.00;;;12.60;99.90;;;;;;5052266;28;20175;-68
2021/08/04 02:13:46;;;;;;;30.57;23.70;;;12.60;99.90;;;;;;5053207;28;20167;-67
2021/08/04 02:16:45;;;;;;;32.63;25.47;;;12.50;99.90;;;;;;5053379;28;20179;-68
2021/08/04 02:19:31;;;;;;;33.00;23.03;;;12.50;99.90;;;;;;5053034;28;20186;-67
2021/08/04 02:22:03;;;;;;;29.80;23.23;;;12.40;99.90;;;;;;5053047;28;20182;-68
2021/08/04 02:24:32;;;;;;;32.93;25.43;;;12.40;99.90;;;;;;5053020;28;20216;-67
2021/08/04 02:27:00;;;;;;;34.60;24.73;;;12.40;99.90;;;;;;5052592;28;20179;-67
2021/08/04 02:29:30;;;;;;;37.83;26.60;;;12.40;99.90;;;;;;5052571;28;20198;-68
2021/08/04 02:31:56;;;;;;;33.90;24.77;;;12.40;99.90;;;;;;5052790;28;20171;-68
2021/08/04 02:34:22;;;;;;;41.70;27.17;;;12.40;99.90;;;;;;5052618;28;20258;-68
2021/08/04 02:36:48;;;;;;;35.50;26.97;;;12.40;99.90;;;;;;5052776;28;20379;-67
2021/08/04 02:39:14;;;;;;;34.67;26.63;;;12.40;99.90;;;;;;5052346;28;20179;-67
2021/08/04 02:41:40;;;;;;;33.73;26.87;;;12.30;99.90;;;;;;5052519;28;20544;-67
2021/08/04 02:44:05;;;;;;;34.90;25.47;;;12.30;99.90;;;;;;5052562;28;20213;-68
2021/08/04 02:46:31;;;;;;;37.70;27.87;;;12.30;99.90;;;;;;5052782;28;20214;-67
2021/08/04 02:48:58;;;;;;;37.93;27.33;;;12.30;99.90;;;;;;5050973;28;20210;-67
2021/08/04 02:51:24;;;;;;;35.70;27.23;;;12.30;99.90;;;;;;5052247;28;20167;-67
2021/08/04 02:53:57;;;;;;;40.47;28.33;;;12.40;99.90;;;;;;5052202;28;20195;-67
2021/08/04 02:56:24;;;;;;;35.83;26.57;;;12.30;99.90;;;;;;5052243;28;20236;-66
2021/08/04 02:58:51;;;;;;;34.50;27.23;;;12.30;99.90;;;;;;5052105;28;20190;-68
2021/08/04 03:01:17;;;;;;;38.57;27.13;;;12.20;99.90;;;;;;5051714;28;20555;-67
2021/08/04 03:03:43;;;;;;;36.50;27.33;;;12.20;99.90;;;;;;5052641;28;20187;-68
2021/08/04 03:06:09;;;;;;;39.77;28.57;;;12.20;99.90;;;;;;5051974;28;20198;-67
2021/08/04 03:08:34;;;;;;;41.60;30.47;;;12.20;99.90;;;;;;5052195;28;20666;-68
2021/08/04 03:11:00;;;;;;;36.50;28.23;;;12.20;99.90;;;;;;5051059;28;20296;-66
2021/08/04 03:13:27;;;;;;;39.27;28.60;;;12.20;99.90;;;;;;5052202;28;20170;-67
2021/08/04 03:15:54;;;;;;;36.00;26.40;;;12.10;99.90;;;;;;5051939;28;20179;-68
2021/08/04 03:18:19;;;;;;;38.77;28.43;;;12.10;99.90;;;;;;5052104;28;20279;-68
2021/08/04 03:20:45;;;;;;;43.27;28.83;;;12.00;99.90;;;;;;5052146;28;20247;-67
2021/08/04 03:23:10;;;;;;;35.67;28.07;;;12.10;99.90;;;;;;5051496;28;20191;-68
2021/08/04 03:25:36;;;;;;;41.43;28.50;;;12.10;99.90;;;;;;5051950;28;20198;-66
2021/08/04 03:28:02;;;;;;;43.87;28.27;;;12.10;99.90;;;;;;5051588;28;20554;-67
2021/08/04 03:30:27;;;;;;;40.30;28.97;;;12.00;99.90;;;;;;5052006;28;20202;-67
2021/08/04 03:32:53;;;;;;;37.23;26.60;;;12.00;99.90;;;;;;5051422;28;20175;-66
2021/08/04 03:35:19;;;;;;;41.40;29.43;;;12.10;99.90;;;;;;5051866;28;20198;-67
2021/08/04 03:37:45;;;;;;;42.03;28.13;;;12.00;99.90;;;;;;5051862;28;20210;-66
2021/08/04 03:40:11;;;;;;;40.73;29.23;;;12.10;99.90;;;;;;5051323;28;20174;-67
2021/08/04 03:42:37;;;;;;;41.23;30.23;;;12.10;99.90;;;;;;5051441;28;20240;-66
2021/08/04 03:45:03;;;;;;;40.20;28.17;;;12.10;99.90;;;;;;5051792;28;20623;-67
2021/08/04 03:47:29;;;;;;;41.27;30.10;;;12.10;99.90;;;;;;5051276;28;20252;-67
2021/08/04 03:49:55;;;;;;;44.00;29.40;;;12.00;99.90;;;;;;5051196;28;20194;-66
2021/08/04 03:52:21;;;;;;;40.73;28.03;;;12.00;99.90;;;;;;5051505;28;20175;-67
2021/08/04 03:54:46;;;;;;;40.53;28.83;;;12.00;99.90;;;;;;5051204;28;20194;-67
2021/08/04 03:57:12;;;;;;;44.73;29.27;;;12.00;99.90;;;;;;5050346;28;20778;-67
2021/08/04 03:59:37;;;;;;;39.27;29.37;;;12.00;99.90;;;;;;5051119;28;20258;-66
2021/08/04 04:02:03;;;;;;;39.80;28.93;;;12.00;99.90;;;;;;5031402;28;20649;-67
2021/08/04 04:04:29;;;;;;;46.03;30.93;;;12.00;99.90;;;;;;5031523;28;20211;-67
2021/08/04 04:06:55;;;;;;;43.50;31.33;;;12.00;99.90;;;;;;5049862;28;20233;-67
2021/08/04 04:09:20;;;;;;;50.93;31.17;;;12.00;99.90;;;;;;5054346;28;20225;-68
2021/08/04 04:11:46;;;;;;;44.83;30.97;;;12.00;99.90;;;;;;5055026;28;20182;-67
2021/08/04 04:14:11;;;;;;;41.90;30.67;;;12.00;99.90;;;;;;5055349;28;20194;-67
2021/08/04 04:16:37;;;;;;;40.83;30.10;;;12.10;99.90;;;;;;5053969;28;20724;-67
2021/08/04 04:19:03;;;;;;;43.63;30.73;;;12.10;99.90;;;;;;5055307;28;20178;-67
2021/08/04 04:21:28;;;;;;;40.87;31.33;;;12.20;99.90;;;;;;5054812;28;20189;-67
2021/08/04 04:23:54;;;;;;;41.77;30.13;;;12.20;99.90;;;;;;5055111;28;20266;-67
2021/08/04 04:26:19;;;;;;;40.37;29.47;;;12.10;99.90;;;;;;5055161;28;20607;-67
2021/08/04 04:28:45;;;;;;;44.97;32.13;;;12.40;99.90;;;;;;5055312;28;20202;-68
2021/08/04 04:31:10;;;;;;;45.07;32.00;;;12.50;99.90;;;;;;5034768;28;20657;-68
2021/08/04 04:33:36;;;;;;;46.63;31.17;;;12.70;99.90;;;;;;5035163;28;20160;-67
2021/08/04 04:36:02;;;;;;;44.83;31.80;;;12.70;99.90;;;;;;5053456;28;20266;-68
2021/08/04 04:38:28;;;;;;;46.23;32.87;;;12.80;99.90;;;;;;5055032;28;20170;-67
2021/08/04 04:40:53;;;;;;;45.87;31.03;;;12.90;99.90;;;;;;5054647;28;20191;-67
2021/08/04 04:43:19;;;;;;;48.77;32.87;;;12.90;99.90;;;;;;5055133;28;20258;-68
2021/08/04 04:45:46;;;;;;;50.73;33.43;;;13.00;99.90;;;;;;5054626;28;20190;-67
2021/08/04 04:48:11;;;;;;;44.73;32.90;;;13.10;99.90;;;;;;5054722;28;20170;-67
2021/08/04 04:50:37;;;;;;;44.13;32.03;;;13.20;99.90;;;;;;5054349;28;20279;-67
2021/08/04 04:53:03;;;;;;;43.60;31.63;;;13.40;99.90;;;;;;5054594;28;20221;-68
2021/08/04 04:55:28;;;;;;;43.70;32.83;;;13.50;99.90;;;;;;5053274;28;20194;-68
2021/08/04 04:57:54;;;;;;;43.70;30.60;;;13.60;99.90;;;;;;5054633;28;20175;-67
2021/08/04 05:00:19;;;;;;;40.37;29.17;;;13.60;99.90;;;;;;5054110;28;20182;-67
2021/08/04 05:02:45;;;;;;;36.47;29.17;;;13.80;99.90;;;;;;5054624;28;20223;-67
2021/08/04 05:05:11;;;;;;;41.33;29.33;;;13.80;99.90;;;;;;5053953;28;20206;-66
2021/08/04 05:07:36;;;;;;;38.40;30.07;;;13.80;99.90;;;;;;5054535;28;20175;-67
2021/08/04 05:10:03;;;;;;;39.67;29.73;;;13.90;99.90;;;;;;5053756;28;20202;-67
2021/08/04 05:12:28;;;;;;;38.30;29.07;;;14.00;99.90;;;;;;5054393;28;20703;-67
2021/08/04 05:14:54;;;;;;;42.03;28.60;;;14.00;99.90;;;;;;5054072;28;20281;-68
2021/08/04 05:17:20;;;;;;;37.77;27.63;;;14.00;99.90;;;;;;5054279;28;20252;-68
2021/08/04 05:19:45;;;;;;;35.27;26.63;;;14.10;99.90;;;;;;5053556;28;20179;-67
2021/08/04 05:22:11;;;;;;;35.57;27.13;;;14.00;99.90;;;;;;5054146;28;20170;-67
2021/08/04 05:24:36;;;;;;;35.13;25.67;;;14.00;99.90;;;;;;5054120;28;20203;-67
2021/08/04 05:27:02;;;;;;;30.53;25.93;;;14.10;99.90;;;;;;5053692;28;20179;-67
2021/08/04 05:29:28;;;;;;;32.87;27.07;;;14.10;99.90;;;;;;5053685;28;20214;-67
2021/08/04 05:31:53;;;;;;;33.30;27.27;;;14.10;99.90;;;;;;5053745;28;20209;-67
2021/08/04 05:34:19;;;;;;;35.33;25.67;;;14.10;99.90;;;;;;5053694;28;20190;-68
2021/08/04 05:36:45;;;;;;;29.67;26.00;;;14.10;99.90;;;;;;5053964;28;20631;-68
2021/08/04 05:39:11;;;;;;;37.17;27.17;;;14.10;99.90;;;;;;5053795;28;20182;-67
2021/08/04 05:41:39;;;;;;;32.30;24.83;;;14.50;99.90;;;;;;5053700;28;20643;-67
2021/08/04 05:44:05;;;;;;;26.30;23.50;;;14.60;99.90;;;;;;5053421;28;20272;-68
2021/08/04 05:46:30;;;;;;;31.43;26.47;;;14.80;99.90;;;;;;5052077;28;20269;-67
2021/08/04 05:48:56;;;;;;;29.27;25.33;;;15.00;99.90;;;;;;5053150;28;20285;-66
2021/08/04 05:51:21;;;;;;;31.33;25.67;;;15.30;99.90;;;;;;5053266;28;20186;-67
2021/08/04 05:53:47;;;;;;;26.87;23.30;;;15.50;99.90;;;;;;5053333;28;20187;-67
2021/08/04 05:56:13;;;;;;;25.57;22.57;;;15.90;99.90;;;;;;5053538;28;20198;-66
2021/08/04 05:58:38;;;;;;;22.23;19.83;;;16.20;99.90;;;;;;5053218;28;20559;-67
2021/08/04 06:01:04;;;;;;;23.70;19.40;;;16.50;99.90;;;;;;5052862;28;20535;-67
2021/08/04 06:03:29;;;;;;;22.57;18.00;;;16.80;99.90;;;;;;5053173;28;20181;-66
2021/08/04 06:05:55;;;;;;;20.80;18.50;;;17.10;99.90;;;;;;5053151;28;20573;-67
2021/08/04 06:08:20;;;;;;;18.23;16.50;;;17.30;99.90;;;;;;5053327;28;20261;-66
2021/08/04 06:10:46;;;;;;;18.87;17.07;;;17.70;99.90;;;;;;5052716;28;20194;-67
2021/08/04 06:13:12;;;;;;;16.80;15.07;;;18.20;99.90;;;;;;5052729;28;20179;-67
2021/08/04 06:15:37;;;;;;;17.70;15.80;;;18.70;99.90;;;;;;5053280;28;20203;-67
2021/08/04 06:18:03;;;;;;;18.47;15.70;;;19.10;99.90;;;;;;5052855;28;20182;-67
2021/08/04 06:20:29;;;;;;;16.33;14.83;;;19.50;99.90;;;;;;5052718;28;20254;-67
2021/08/04 06:22:54;;;;;;;17.97;16.30;;;19.70;99.90;;;;;;5051429;28;20177;-66
2021/08/04 06:25:20;;;;;;;17.00;15.23;;;19.90;99.90;;;;;;5052747;28;20668;-67
2021/08/04 06:27:46;;;;;;;18.10;16.40;;;20.00;99.90;;;;;;5052691;28;20163;-67
2021/08/04 06:30:12;;;;;;;16.53;14.83;;;20.10;99.90;;;;;;5052300;28;20206;-66
2021/08/04 06:32:37;;;;;;;16.10;14.57;;;20.40;99.90;;;;;;5052484;28;20171;-66
2021/08/04 06:35:03;;;;;;;15.37;13.83;;;20.60;99.90;;;;;;5052041;28;20549;-66
2021/08/04 06:37:29;;;;;;;15.03;13.47;;;20.90;99.90;;;;;;5052804;28;20162;-67
2021/08/04 06:39:54;;;;;;;14.40;13.07;;;21.40;99.90;;;;;;5051995;28;20175;-68
2021/08/04 06:42:20;;;;;;;13.80;12.50;;;21.90;99.90;;;;;;5052459;28;20526;-67
2021/08/04 06:44:46;;;;;;;14.43;12.25;;;22.40;99.90;;;;;;5052483;28;20203;-66
2021/08/04 06:47:11;;;;;;;14.50;13.00;;;23.10;99.90;;;;;;5052028;28;20707;-67
2021/08/04 06:49:37;;;;;;;15.55;13.93;;;23.40;99.90;;;;;;5052261;28;20218;-67
2021/08/04 06:52:03;;;;;;;17.30;13.23;;;23.40;99.90;;;;;;5052047;28;20266;-67
2021/08/04 06:54:28;;;;;;;14.32;12.90;;;23.70;99.90;;;;;;5052571;28;20191;-67
2021/08/04 06:56:54;;;;;;;14.50;12.77;;;23.70;99.90;;;;;;5052164;28;20171;-67
2021/08/04 06:59:20;;;;;;;14.32;12.98;;;23.70;99.90;;;;;;5051849;28;20636;-67
2021/08/04 07:01:45;;;;;;;13.98;12.68;;;23.60;99.90;;;;;;5052470;28;20170;-68
2021/08/04 07:04:12;;;;;;;17.42;14.25;;;23.60;99.90;;;;;;5051977;28;20202;-68
2021/08/04 07:06:37;;;;;;;14.68;13.18;;;23.60;99.90;;;;;;5052403;28;20197;-68
2021/08/04 07:09:03;;;;;;;14.65;13.20;;;23.30;99.90;;;;;;5051861;28;20285;-68
2021/08/04 07:11:29;;;;;;;14.90;13.50;;;23.10;99.90;;;;;;5051640;28;20177;-67
2021/08/04 07:13:55;;;;;;;13.73;12.43;;;23.20;99.90;;;;;;5051865;28;20601;-66
2021/08/04 07:16:21;;;;;;;13.70;12.40;;;23.50;99.90;;;;;;5052000;28;20171;-68
2021/08/04 07:18:47;;;;;;;16.05;12.00;;;23.80;99.90;;;;;;5052144;28;20231;-67
2021/08/04 07:21:13;;;;;;;13.48;12.23;;;24.30;99.90;;;;;;5051301;28;20640;-67
2021/08/04 07:23:40;;;;;;;13.95;12.57;;;24.80;99.90;;;;;;5051902;28;20262;-66
2021/08/04 07:26:06;;;;;;;13.20;11.80;;;25.20;99.90;;;;;;5051469;28;20285;-68
2021/08/04 07:28:31;;;;;;;14.15;12.25;;;25.40;99.90;;;;;;5051981;28;20202;-67
2021/08/04 07:30:57;;;;;;;12.65;11.45;;;25.50;99.90;;;;;;5050591;28;20174;-67
2021/08/04 07:33:23;;;;;;;13.55;12.25;;;25.70;99.90;;;;;;5051876;28;20227;-67
2021/08/04 07:35:48;;;;;;;13.77;12.43;;;26.00;99.90;;;;;;5051662;28;20261;-68
2021/08/04 07:38:14;;;;;;;13.02;11.50;;;25.90;99.90;;;;;;5051984;28;20178;-68
2021/08/04 07:40:42;;;;;;;12.25;10.95;;;25.60;99.90;;;;;;5051377;28;20712;-68
2021/08/04 07:43:08;;;;;;;14.15;12.38;;;25.50;99.90;;;;;;5050618;28;20185;-68
2021/08/04 07:45:33;;;;;;;12.95;11.75;;;25.50;99.90;;;;;;5051625;28;20202;-68
2021/08/04 07:47:59;;;;;;;12.45;11.20;;;25.60;99.90;;;;;;5051438;28;20644;-68
2021/08/04 07:50:25;;;;;;;12.80;11.30;;;25.90;99.90;;;;;;5051101;28;20698;-68
2021/08/04 07:52:50;;;;;;;12.27;11.07;;;26.10;99.90;;;;;;5051647;28;20203;-67
2021/08/04 07:55:16;;;;;;;12.20;11.00;;;26.20;99.90;;;;;;5051123;28;20694;-68
2021/08/04 07:57:42;;;;;;;12.20;11.10;;;26.20;99.90;;;;;;5051302;28;20182;-68
2021/08/04 08:00:09;;;;;;;12.20;10.65;;;26.50;99.90;;;;;;5051111;28;20194;-67
2021/08/04 08:02:34;;;;;;;13.02;11.82;;;27.10;99.90;;;;;;5051298;28;20171;-68
2021/08/04 08:05:00;;;;;;;12.15;10.95;;;27.60;99.90;;;;;;5051261;28;20605;-67
2021/08/04 08:07:26;;;;;;;12.68;11.32;;;28.00;99.90;;;;;;5051205;28;20171;-66
2021/08/04 08:09:52;;;;;;;11.63;10.60;;;28.30;99.90;;;;;;5050848;28;20210;-68
2021/08/04 08:12:17;;;;;;;11.38;10.27;;;28.00;99.90;;;;;;5051149;28;20249;-68
2021/08/04 08:14:44;;;;;;;12.32;10.93;;;27.50;99.90;;;;;;5051103;28;20290;-68
2021/08/04 08:17:09;;;;;;;11.57;10.38;;;27.30;99.90;;;;;;5050856;28;20174;-67
2021/08/04 08:19:35;;;;;;;12.40;11.27;;;27.70;99.90;;;;;;5050687;28;20183;-68
2021/08/04 08:22:01;;;;;;;12.65;11.38;;;27.70;99.90;;;;;;5051215;28;20245;-68
2021/08/04 08:24:27;;;;;;;13.73;12.50;;;28.00;99.90;;;;;;5050876;28;20604;-67
2021/08/04 08:26:53;;;;;;;13.98;12.63;;;27.60;99.90;;;;;;5050939;28;20265;-67
2021/08/04 08:29:18;;;;;;;12.95;11.85;;;27.50;99.90;;;;;;5050690;28;20739;-67
2021/08/04 08:31:44;;;;;;;13.90;11.25;;;27.70;99.90;;;;;;5050753;28;20182;-68
2021/08/04 08:34:10;;;;;;;13.00;11.80;;;27.70;99.90;;;;;;5050879;28;20545;-68
2021/08/04 08:36:38;;;;;;;12.68;11.57;;;27.90;99.90;;;;;;5051041;28;20586;-68
2021/08/04 08:39:06;;;;;;;13.48;12.07;;;28.10;99.90;;;;;;5051010;28;20179;-68
2021/08/04 08:41:32;;;;;;;13.77;12.50;;;28.30;99.90;;;;;;5050688;28;20179;-67
2021/08/04 08:43:58;;;;;;;13.35;12.23;;;28.00;99.90;;;;;;5049790;28;20576;-68
2021/08/04 08:46:29;;;;;;;12.98;11.55;;;28.10;99.90;;;;;;5050706;28;20190;-68
2021/08/04 08:48:54;;;;;;;13.05;11.85;;;27.80;99.90;;;;;;5050766;28;20197;-68
2021/08/04 08:51:20;;;;;;;13.10;11.90;;;27.80;99.90;;;;;;5050486;28;20262;-67
2021/08/04 08:53:47;;;;;;;12.98;11.68;;;28.00;99.90;;;;;;5051321;28;20245;-69
2021/08/04 08:56:17;;;;;;;12.35;11.15;;;27.80;99.90;;;;;;5054452;28;20189;-68
2021/08/04 08:58:43;;;;;;;11.27;10.18;;;28.20;99.90;;;;;;5053167;28;20175;-67
2021/08/04 09:01:08;;;;;;;12.23;10.93;;;28.90;99.90;;;;;;5052105;28;20220;-68
2021/08/04 09:03:34;;;;;;;11.20;10.20;;;29.30;99.90;;;;;;5054196;28;20660;-68
2021/08/04 09:06:02;;;;;;;11.00;9.63;;;29.50;99.90;;;;;;5054332;28;20175;-65
2021/08/04 09:08:33;;;;;;;10.70;9.60;;;29.70;99.90;;;;;;5054142;28;20239;-65
2021/08/04 09:11:11;;;;;;;10.90;9.95;;;29.50;99.90;;;;;;5053209;28;20171;-65
2021/08/04 09:13:36;;;;;;;11.80;10.63;;;29.20;99.90;;;;;;5054431;28;20647;-65
2021/08/04 09:16:11;;;;;;;11.73;9.88;;;29.00;99.90;;;;;;5053895;28;20185;-65
2021/08/04 09:18:44;;;;;;;10.95;9.85;;;29.60;99.90;;;;;;5044668;28;20262;-66
2021/08/04 09:21:11;;;;;;;11.90;10.80;;;30.40;99.90;;;;;;5053779;28;20209;-65
2021/08/04 09:23:56;;;;;;;10.95;9.95;;;30.80;99.90;;;;;;5053548;28;20195;-66
2021/08/04 09:26:26;;;;;;;10.75;9.77;;;30.90;99.90;;;;;;5054306;28;20189;-65
2021/08/04 09:28:57;;;;;;;12.07;10.93;;;30.60;99.90;;;;;;5053661;28;20676;-65
2021/08/04 09:31:43;;;;;;;13.00;11.90;;;30.20;99.90;;;;;;5053789;28;20171;-68
2021/08/04 09:34:28;;;;;;;13.80;12.52;;;29.70;99.90;;;;;;5053222;28;20191;-68
2021/08/04 09:37:01;;;;;;;14.35;13.00;;;29.30;99.90;;;;;;5053408;28;20167;-68
2021/08/04 09:39:27;;;;;;;15.75;14.43;;;28.70;99.90;;;;;;5053285;28;20191;-67
2021/08/04 09:41:53;;;;;;;16.38;14.68;;;28.30;99.90;;;;;;5053754;28;20221;-67
2021/08/04 09:46:46;;;;;;;17.70;16.10;;;27.50;99.90;;;;;;5012752;28;20234;-68
2021/08/04 09:49:17;;;;;;;15.55;14.05;;;27.10;99.90;;;;;;5013320;28;20294;-67
2021/08/04 09:51:44;;;;;;;17.42;15.65;;;26.90;99.90;;;;;;5014020;28;20172;-67
2021/08/04 09:54:12;;;;;;;17.80;15.95;;;27.10;99.90;;;;;;5013507;28;20196;-67
2021/08/04 09:56:52;;;;;;;17.08;15.48;;;27.20;99.90;;;;;;5013954;28;20171;-68
2021/08/04 09:59:20;;;;;;;16.25;14.55;;;27.30;99.90;;;;;;5013171;28;20591;-68
2021/08/04 10:01:46;;;;;;;15.57;14.15;;;27.40;99.90;;;;;;5013773;28;20174;-68
2021/08/04 10:04:12;;;;;;;18.02;16.13;;;27.60;99.90;;;;;;5013321;28;20204;-67
2021/08/04 10:06:42;;;;;;;17.13;15.63;;;27.20;99.90;;;;;;5012838;28;20230;-67
2021/08/04 10:09:14;;;;;;;18.48;16.92;;;27.30;99.90;;;;;;5013141;28;20732;-68
2021/08/04 10:11:44;;;;;;;15.73;14.23;;;27.50;99.90;;;;;;5013416;28;20176;-67
2021/08/04 10:14:15;;;;;;;18.33;14.45;;;27.20;99.90;;;;;;5013105;28;20707;-67
2021/08/04 10:16:42;;;;;;;16.80;15.30;;;27.20;99.90;;;;;;5013725;28;20229;-68
2021/08/04 10:19:07;;;;;;;17.90;16.20;;;26.90;99.90;;;;;;5013022;28;20184;-68
2021/08/04 10:21:35;;;;;;;17.23;15.57;;;26.80;99.90;;;;;;5013089;28;20657;-67
2021/08/04 10:24:03;;;;;;;16.02;14.50;;;26.90;99.90;;;;;;5011794;28;20420;-68
2021/08/04 10:26:30;;;;;;;16.90;15.20;;;26.90;99.90;;;;;;5013317;28;20238;-69
2021/08/04 10:28:57;;;;;;;15.18;13.85;;;27.30;99.90;;;;;;5012776;28;20278;-68
2021/08/04 10:31:24;;;;;;;15.82;14.32;;;27.50;99.90;;;;;;5012914;28;20169;-68
2021/08/04 10:33:50;;;;;;;14.20;12.88;;;28.10;99.90;;;;;;5013047;28;20199;-68
2021/08/04 10:36:18;;;;;;;14.32;12.82;;;28.70;99.90;;;;;;5013035;28;20256;-68
2021/08/04 10:38:49;;;;;;;11.80;10.80;;;29.30;99.90;;;;;;5012285;28;20172;-67
2021/08/04 10:41:28;;;;;;;13.15;11.85;;;29.50;99.90;;;;;;5012321;28;20191;-67
2021/08/04 10:43:57;;;;;;;13.85;12.43;;;29.30;99.90;;;;;;5012342;28;20258;-68
2021/08/04 10:46:31;;;;;;;15.02;13.63;;;29.20;99.90;;;;;;5012612;28;20215;-67
2021/08/04 10:49:05;;;;;;;14.25;12.95;;;29.10;99.90;;;;;;5012966;28;20204;-68
2021/08/04 10:51:35;;;;;;;15.77;14.15;;;28.50;99.90;;;;;;5012640;28;20187;-68
2021/08/04 10:54:01;;;;;;;16.08;14.57;;;27.90;99.90;;;;;;5012794;28;20216;-67
2021/08/04 10:56:32;;;;;;;15.05;13.02;;;27.60;99.90;;;;;;5012620;28;20277;-67
2021/08/04 10:59:13;;;;;;;14.30;12.32;;;27.00;99.90;;;;;;5012409;28;20186;-68
2021/08/04 11:01:41;;;;;;;12.18;10.88;;;26.90;99.90;;;;;;5012238;28;20179;-68
2021/08/04 11:04:09;;;;;;;12.35;11.15;;;26.70;99.90;;;;;;5012313;28;20200;-66
2021/08/04 11:06:35;;;;;;;12.63;11.18;;;26.70;99.90;;;;;;5011528;28;20314;-67
2021/08/04 11:09:12;;;;;;;12.20;10.75;;;26.80;99.90;;;;;;5012329;28;20235;-68
2021/08/04 11:11:54;;;;;;;12.70;11.45;;;26.60;99.90;;;;;;5011812;28;20191;-67
2021/08/04 11:14:41;;;;;;;14.93;12.23;;;26.50;99.90;;;;;;5012272;28;20249;-67
2021/08/04 11:17:10;;;;;;;13.25;12.00;;;26.40;99.90;;;;;;5012189;28;20202;-68
2021/08/04 11:20:05;;;;;;;13.30;11.98;;;26.10;99.90;;;;;;5012123;28;20562;-67
2021/08/04 11:22:37;;;;;;;13.10;11.73;;;26.10;99.90;;;;;;5012104;28;20180;-68
2021/08/04 11:25:10;;;;;;;13.60;12.27;;;26.30;99.90;;;;;;5012187;28;20207;-68
2021/08/04 11:27:42;;;;;;;13.80;12.43;;;26.40;99.90;;;;;;5011930;28;20550;-68
2021/08/04 11:30:11;;;;;;;16.77;11.65;;;26.30;99.90;;;;;;5011767;28;20200;-67
2021/08/04 11:32:36;;;;;;;13.90;11.35;;;26.30;99.90;;;;;;5011933;28;20226;-67
2021/08/04 11:35:16;;;;;;;12.45;11.07;;;26.40;99.90;;;;;;5012212;28;20196;-67
2021/08/04 11:37:42;;;;;;;12.85;11.65;;;26.30;99.90;;;;;;5009748;28;20582;-69
2021/08/04 11:40:09;;;;;;;15.13;12.27;;;26.10;99.90;;;;;;5011584;28;20190;-67
2021/08/04 11:42:34;;;;;;;13.35;12.10;;;26.20;99.90;;;;;;5011870;28;20549;-68
2021/08/04 11:45:04;;;;;;;13.68;11.27;;;26.20;99.90;;;;;;5012125;28;20397;-68
2021/08/04 11:47:29;;;;;;;11.55;10.45;;;26.30;99.90;;;;;;5012050;28;20189;-67
2021/08/04 11:49:57;;;;;;;12.30;11.07;;;26.50;99.90;;;;;;5011747;28;20705;-68
2021/08/04 11:52:25;;;;;;;14.20;11.70;;;26.30;99.90;;;;;;5027138;28;20176;-67
2021/08/04 11:54:58;;;;;;;13.23;11.90;;;26.60;99.90;;;;;;5011886;28;20192;-67
2021/08/04 11:57:24;;;;;;;12.90;11.60;;;26.80;99.90;;;;;;5011820;28;20179;-68
2021/08/04 11:59:52;;;;;;;11.95;10.85;;;27.10;99.90;;;;;;5011397;28;20176;-68
2021/08/04 12:02:20;;;;;;;13.75;12.52;;;27.40;99.90;;;;;;5011698;28;20183;-67
2021/08/04 12:04:55;;;;;;;13.20;12.00;;;27.40;99.90;;;;;;5011212;28;20558;-67
2021/08/04 12:07:26;;;;;;;11.75;10.65;;;27.40;99.90;;;;;;5011545;28;20171;-67
2021/08/04 12:09:57;;;;;;;13.60;12.20;;;27.20;99.90;;;;;;5011059;28;20604;-66
2021/08/04 12:12:50;;;;;;;12.52;11.23;;;27.20;99.90;;;;;;5011783;28;20173;-66
2021/08/04 12:15:23;;;;;;;12.90;11.02;;;26.40;99.90;;;;;;5010801;28;20216;-65
2021/08/04 12:17:56;;;;;;;13.45;12.10;;;26.10;99.90;;;;;;5011742;28;20165;-65
2021/08/04 12:20:24;;;;;;;14.20;12.30;;;26.20;99.90;;;;;;5011398;28;20184;-65
2021/08/04 12:22:58;;;;;;;12.13;11.02;;;26.60;99.90;;;;;;5011692;28;20655;-65
2021/08/04 12:25:24;;;;;;;12.38;11.18;;;26.80;99.90;;;;;;5011124;28;20200;-65
2021/08/04 12:27:52;;;;;;;11.65;10.55;;;27.20;99.90;;;;;;5011502;28;20199;-65
2021/08/04 12:30:32;;;;;;;12.40;11.15;;;27.50;99.90;;;;;;5012584;28;20715;-65
2021/08/04 12:33:05;;;;;;;12.88;11.63;;;27.60;99.90;;;;;;5015665;28;20172;-65
2021/08/04 12:36:03;;;;;;;13.02;11.75;;;27.40;99.90;;;;;;5015030;28;20191;-65